Time;durP1;ratioP1;P1;durP2;ratioP2;P2;SDS_P1;SDS_P2;PMS_P1;PMS_P2;Temp;Humidity;BMP_temperature;BMP_pressure;BME280_temperature;BME280_humidity;BME280_pressure;Samples;Min_cycle;Max_cycle;Signal;HPM_P1;HPM_P2
2023/06/12 00:00:41;;;;;;;;;;;21.60;99.50;;;;;;5017003;28;19944;-66
2023/06/12 00:03:07;;;;;;;;;;;21.60;99.20;;;;;;5016900;28;19936;-66
2023/06/12 00:05:33;;;;;;;;;;;21.60;97.50;;;;;;5016621;28;19909;-66
2023/06/12 00:08:00;;;;;;;;;;;21.60;98.90;;;;;;5016992;28;19999;-66
2023/06/12 00:10:26;;;;;;;;;;;21.60;98.20;;;;;;5016186;28;19905;-66
2023/06/12 00:12:52;;;;;;;;;;;21.60;98.00;;;;;;5016311;28;19967;-66
2023/06/12 00:15:17;;;;;;;;;;;21.60;97.30;;;;;;5017321;28;20236;-66
2023/06/12 00:17:43;;;;;;;;;;;21.60;99.20;;;;;;5016265;28;19914;-65
2023/06/12 00:20:09;;;;;;;;;;;21.50;98.20;;;;;;5017586;28;19918;-66
2023/06/12 00:22:40;;;;;;;;;;;21.50;97.40;;;;;;5016711;28;19909;-66
2023/06/12 00:25:08;;;;;;;;;;;21.50;97.80;;;;;;5015433;28;20216;-66
2023/06/12 00:27:34;;;;;;;;;;;21.40;98.30;;;;;;5011549;28;19917;-76
2023/06/12 00:30:00;;;;;;;;;;;21.40;98.40;;;;;;5017159;28;19955;-66
2023/06/12 00:32:25;;;;;;;;;;;21.40;99.20;;;;;;5016312;28;19909;-66
2023/06/12 00:34:51;;;;;;;;;;;21.30;97.90;;;;;;5015759;28;20315;-66
2023/06/12 00:37:17;;;;;;;;;;;21.30;99.60;;;;;;5016361;28;20323;-67
2023/06/12 00:39:46;;;;;;;;;;;21.30;98.30;;;;;;5016995;28;19951;-67
2023/06/12 00:42:11;;;;;;;;;;;21.30;97.40;;;;;;5016701;28;19913;-66
2023/06/12 00:44:37;;;;;;;;;;;21.30;98.40;;;;;;5016177;28;20212;-65
2023/06/12 00:47:04;;;;;;;;;;;21.30;97.40;;;;;;5015762;28;20000;-66
2023/06/12 00:49:30;;;;;;;;;;;21.20;98.10;;;;;;5016544;28;20367;-66
2023/06/12 00:51:55;;;;;;;;;;;21.20;98.30;;;;;;5019999;28;20067;-67
2023/06/12 00:54:21;;;;;;;;;;;21.10;97.30;;;;;;5015592;28;19960;-67
2023/06/12 00:56:47;;;;;;;;;;;21.10;98.80;;;;;;5019381;28;19924;-66
2023/06/12 00:59:13;;;;;;;;;;;21.10;99.20;;;;;;5018595;28;19909;-65
2023/06/12 01:01:38;;;;;;;;;;;21.10;97.40;;;;;;5019146;28;19917;-74
2023/06/12 01:04:04;;;;;;;;;;;21.10;97.60;;;;;;5018691;28;19909;-67
2023/06/12 01:06:53;;;;;;;;;;;21.10;97.10;;;;;;5019132;28;19909;-66
2023/06/12 01:09:28;;;;;;;;;;;21.10;96.70;;;;;;5020978;28;19912;-66
2023/06/12 01:11:55;;;;;;;;;;;21.00;98.00;;;;;;5018552;28;19936;-67
2023/06/12 01:14:21;;;;;;;;;;;21.00;97.70;;;;;;5018304;28;19909;-67
2023/06/12 01:16:47;;;;;;;;;;;21.00;97.60;;;;;;5022694;28;19917;-66
2023/06/12 01:19:15;;;;;;;;;;;20.90;97.90;;;;;;5018179;28;19910;-66
2023/06/12 01:21:44;;;;;;;;;;;20.90;98.30;;;;;;5020432;28;19959;-66
2023/06/12 01:24:29;;;;;;;;;;;20.90;97.20;;;;;;5019090;28;19948;-67
2023/06/12 01:27:08;;;;;;;;;;;20.90;96.80;;;;;;5018090;28;19999;-66
2023/06/12 01:29:52;;;;;;;;;;;20.90;97.60;;;;;;5015375;28;20000;-67
2023/06/12 01:32:18;;;;;;;;;;;20.80;98.70;;;;;;5016255;28;19913;-74
2023/06/12 01:34:56;;;;;;;;;;;20.80;99.90;;;;;;5015079;28;19913;-66
2023/06/12 01:37:22;;;;;;;;;;;20.70;99.90;;;;;;5014958;28;19909;-75
2023/06/12 01:39:58;;;;;;;;;;;20.60;99.30;;;;;;5015586;28;19909;-66
2023/06/12 01:42:25;;;;;;;;;;;20.60;99.80;;;;;;5015146;28;19909;-67
2023/06/12 01:44:50;;;;;;;;;;;20.50;99.90;;;;;;5015463;28;20201;-66
2023/06/12 01:47:16;;;;;;;;;;;20.50;99.90;;;;;;5014821;28;19920;-75
2023/06/12 01:49:42;;;;;;;;;;;20.40;99.90;;;;;;5015394;28;19913;-66
2023/06/12 01:52:07;;;;;;;;;;;20.40;99.90;;;;;;5015182;28;19975;-66
2023/06/12 01:54:33;;;;;;;;;;;20.30;99.90;;;;;;5014583;28;20185;-67
2023/06/12 01:56:59;;;;;;;;;;;20.30;99.90;;;;;;5011646;28;19926;-67
2023/06/12 01:59:24;;;;;;;;;;;20.20;99.90;;;;;;5014505;28;20362;-66
2023/06/12 02:01:50;;;;;;;;;;;20.20;98.90;;;;;;5022183;28;19909;-66
2023/06/12 02:04:17;;;;;;;;;;;20.20;99.50;;;;;;5017244;28;19963;-66
2023/06/12 02:06:42;;;;;;;;;;;20.20;98.70;;;;;;5014710;28;19909;-66
2023/06/12 02:09:08;;;;;;;;;;;20.20;98.40;;;;;;5015373;28;19910;-66
2023/06/12 02:11:33;;;;;;;;;;;20.20;98.10;;;;;;5013611;28;19913;-67
2023/06/12 02:13:59;;;;;;;;;;;20.20;98.60;;;;;;5015268;28;20308;-66
2023/06/12 02:16:25;;;;;;;;;;;20.20;99.90;;;;;;5014503;28;20292;-75
2023/06/12 02:18:50;;;;;;;;;;;20.10;99.90;;;;;;5015395;28;20036;-66
2023/06/12 02:21:16;;;;;;;;;;;20.10;99.90;;;;;;5014899;28;19909;-66
2023/06/12 02:23:42;;;;;;;;;;;20.00;99.90;;;;;;5015227;28;19913;-66
2023/06/12 02:26:07;;;;;;;;;;;20.00;98.60;;;;;;5015296;28;19905;-66
2023/06/12 02:28:33;;;;;;;;;;;20.00;98.40;;;;;;5015037;28;19916;-67
2023/06/12 02:30:58;;;;;;;;;;;19.90;99.90;;;;;;5014454;28;19939;-66
2023/06/12 02:33:25;;;;;;;;;;;19.90;99.90;;;;;;5014806;28;20231;-66
2023/06/12 02:35:51;;;;;;;;;;;19.80;99.90;;;;;;5015291;28;19963;-66
2023/06/12 02:38:17;;;;;;;;;;;19.80;99.90;;;;;;5015103;28;19905;-75
2023/06/12 02:40:42;;;;;;;;;;;19.70;99.90;;;;;;5013338;28;19910;-66
2023/06/12 02:43:08;;;;;;;;;;;19.70;99.90;;;;;;5015334;28;20500;-66
2023/06/12 02:45:33;;;;;;;;;;;19.60;99.90;;;;;;5014728;28;20260;-66
2023/06/12 02:47:59;;;;;;;;;;;19.60;99.90;;;;;;5014657;28;20014;-66
2023/06/12 02:50:24;;;;;;;;;;;19.50;99.90;;;;;;5018671;28;19905;-66
2023/06/12 02:52:50;;;;;;;;;;;19.50;99.90;;;;;;5018467;28;20311;-68
2023/06/12 02:55:16;;;;;;;;;;;19.40;99.90;;;;;;5019038;28;19913;-66
2023/06/12 02:57:41;;;;;;;;;;;19.30;99.90;;;;;;5017094;28;19921;-66
2023/06/12 03:00:07;;;;;;;;;;;19.30;99.90;;;;;;5018416;28;19917;-66
2023/06/12 03:02:33;;;;;;;;;;;19.20;99.90;;;;;;5017487;28;20002;-66
2023/06/12 03:04:59;;;;;;;;;;;19.20;99.90;;;;;;5018766;28;19920;-66
2023/06/12 03:07:26;;;;;;;;;;;19.20;99.90;;;;;;5018018;28;19953;-67
2023/06/12 03:09:52;;;;;;;;;;;19.20;99.90;;;;;;5018774;28;19905;-66
2023/06/12 03:12:18;;;;;;;;;;;19.20;99.90;;;;;;5017719;28;20224;-75
2023/06/12 03:14:44;;;;;;;;;;;19.10;99.90;;;;;;5017485;28;19920;-66
2023/06/12 03:17:09;;;;;;;;;;;19.10;99.90;;;;;;5018661;28;19916;-66
2023/06/12 03:19:35;;;;;;;;;;;19.10;99.90;;;;;;5018879;28;20388;-66
2023/06/12 03:22:01;;;;;;;;;;;19.00;99.90;;;;;;5019215;28;19909;-66
2023/06/12 03:24:29;;;;;;;;;;;19.00;99.90;;;;;;5032856;28;19916;-66
2023/06/12 03:26:58;;;;;;;;;;;19.00;99.90;;;;;;5016568;28;19909;-66
2023/06/12 03:29:24;;;;;;;;;;;18.90;99.90;;;;;;5017969;28;20334;-66
2023/06/12 03:31:50;;;;;;;;;;;18.90;99.90;;;;;;5017681;28;19909;-66
2023/06/12 03:34:16;;;;;;;;;;;18.90;99.90;;;;;;5017521;28;19924;-75
2023/06/12 03:36:43;;;;;;;;;;;18.90;99.90;;;;;;5015274;28;19913;-66
2023/06/12 03:39:09;;;;;;;;;;;18.80;99.90;;;;;;5016322;28;20108;-66
2023/06/12 03:41:35;;;;;;;;;;;18.80;99.90;;;;;;5018335;28;19913;-74
2023/06/12 03:44:00;;;;;;;;;;;18.80;99.90;;;;;;5009857;28;19941;-66
2023/06/12 03:46:30;;;;;;;;;;;18.70;99.90;;;;;;5022815;28;19976;-66
2023/06/12 03:48:56;;;;;;;;;;;18.70;99.90;;;;;;5025038;28;19955;-66
2023/06/12 03:51:21;;;;;;;;;;;18.70;99.90;;;;;;5017751;28;20000;-66
2023/06/12 03:53:47;;;;;;;;;;;18.60;99.90;;;;;;5020132;28;19913;-66
2023/06/12 03:56:13;;;;;;;;;;;18.60;99.90;;;;;;5021744;28;19975;-66
2023/06/12 03:58:38;;;;;;;;;;;18.70;99.90;;;;;;5022918;28;19913;-66
2023/06/12 04:01:05;;;;;;;;;;;18.70;99.90;;;;;;5021194;28;19920;-66
2023/06/12 04:03:30;;;;;;;;;;;18.70;99.90;;;;;;5014803;28;20177;-66
2023/06/12 04:05:56;;;;;;;;;;;18.70;99.90;;;;;;5026143;28;19905;-66
2023/06/12 04:08:22;;;;;;;;;;;18.80;99.90;;;;;;5016399;28;20269;-66
2023/06/12 04:10:47;;;;;;;;;;;18.80;99.90;;;;;;5017335;28;19909;-75
2023/06/12 04:13:13;;;;;;;;;;;18.90;99.90;;;;;;5019997;28;20000;-66
2023/06/12 04:15:39;;;;;;;;;;;18.90;99.90;;;;;;5030558;28;19924;-66
2023/06/12 04:18:05;;;;;;;;;;;18.90;99.90;;;;;;5027178;28;20207;-66
2023/06/12 04:20:32;;;;;;;;;;;18.90;99.90;;;;;;5021994;28;19967;-66
2023/06/12 04:22:57;;;;;;;;;;;18.90;99.90;;;;;;5025812;28;19916;-66
2023/06/12 04:25:25;;;;;;;;;;;18.90;99.90;;;;;;5023897;28;19910;-66
2023/06/12 04:27:51;;;;;;;;;;;18.90;99.90;;;;;;5023275;28;20320;-66
2023/06/12 04:30:16;;;;;;;;;;;18.90;99.90;;;;;;5024821;28;19916;-66
2023/06/12 04:32:42;;;;;;;;;;;18.90;99.90;;;;;;5022605;28;19912;-66
2023/06/12 04:35:08;;;;;;;;;;;18.90;99.90;;;;;;5027262;28;19916;-66
2023/06/12 04:37:34;;;;;;;;;;;18.90;99.90;;;;;;5021027;28;20348;-66
2023/06/12 04:39:59;;;;;;;;;;;18.90;99.90;;;;;;5031637;28;19917;-66
2023/06/12 04:42:26;;;;;;;;;;;18.90;99.90;;;;;;5014939;28;19928;-67
2023/06/12 04:44:52;;;;;;;;;;;19.00;99.90;;;;;;5011092;28;19913;-66
2023/06/12 04:47:18;;;;;;;;;;;18.90;99.90;;;;;;5016156;28;19910;-66
2023/06/12 04:49:45;;;;;;;;;;;18.90;99.90;;;;;;5016306;28;19913;-66
2023/06/12 04:52:12;;;;;;;;;;;18.90;99.90;;;;;;5022777;28;19917;-66
2023/06/12 04:54:41;;;;;;;;;;;19.00;99.90;;;;;;5017083;28;19916;-66
2023/06/12 04:57:16;;;;;;;;;;;19.00;99.90;;;;;;5029355;28;19918;-66
2023/06/12 04:59:45;;;;;;;;;;;19.00;99.90;;;;;;5014816;28;20220;-66
2023/06/12 05:02:11;;;;;;;;;;;19.10;99.90;;;;;;5020162;28;20312;-66
2023/06/12 05:04:37;;;;;;;;;;;19.10;99.90;;;;;;5031954;28;19911;-66
2023/06/12 05:07:04;;;;;;;;;;;19.10;99.90;;;;;;5028721;28;19917;-66
2023/06/12 05:09:30;;;;;;;;;;;19.20;99.90;;;;;;5020943;28;20231;-66
2023/06/12 05:11:56;;;;;;;;;;;19.20;99.90;;;;;;5022622;28;19913;-67
2023/06/12 05:14:21;;;;;;;;;;;19.20;99.90;;;;;;5021226;28;19916;-67
2023/06/12 05:16:48;;;;;;;;;;;19.30;99.90;;;;;;5030297;28;19905;-66
2023/06/12 05:19:14;;;;;;;;;;;19.30;99.90;;;;;;5020655;28;19921;-67
2023/06/12 05:21:41;;;;;;;;;;;19.30;99.90;;;;;;5019692;28;19909;-66
2023/06/12 05:24:07;;;;;;;;;;;19.30;99.90;;;;;;5015606;28;20386;-66
2023/06/12 05:26:33;;;;;;;;;;;19.50;99.90;;;;;;5015753;28;19959;-67
2023/06/12 05:28:58;;;;;;;;;;;19.50;99.90;;;;;;5026727;28;19952;-66
2023/06/12 05:31:29;;;;;;;;;;;19.60;99.90;;;;;;5030341;28;20263;-67
2023/06/12 05:33:55;;;;;;;;;;;19.70;99.90;;;;;;5030638;28;19959;-66
2023/06/12 05:36:21;;;;;;;;;;;19.70;99.90;;;;;;5031193;28;19905;-67
2023/06/12 05:38:46;;;;;;;;;;;19.80;99.90;;;;;;5026972;28;19912;-67
2023/06/12 05:41:13;;;;;;;;;;;19.90;99.90;;;;;;5029561;28;19905;-66
2023/06/12 05:43:39;;;;;;;;;;;19.90;99.90;;;;;;5022766;28;20323;-66
2023/06/12 05:46:04;;;;;;;;;;;19.90;99.90;;;;;;5031114;28;19916;-66
2023/06/12 05:48:30;;;;;;;;;;;19.90;99.90;;;;;;5028964;28;19917;-67
2023/06/12 05:50:56;;;;;;;;;;;19.90;99.90;;;;;;5024487;28;19920;-76
2023/06/12 05:53:21;;;;;;;;;;;20.00;99.90;;;;;;5031942;28;19941;-66
2023/06/12 05:55:47;;;;;;;;;;;20.00;99.90;;;;;;5026260;28;19936;-66
2023/06/12 05:58:12;;;;;;;;;;;20.10;99.90;;;;;;5031540;28;19909;-67
2023/06/12 06:00:38;;;;;;;;;;;20.20;99.90;;;;;;5027662;28;19982;-67
2023/06/12 06:03:04;;;;;;;;;;;20.20;99.90;;;;;;5023566;28;19917;-67
2023/06/12 06:05:32;;;;;;;;;;;20.30;99.90;;;;;;5031365;28;19967;-68
2023/06/12 06:07:58;;;;;;;;;;;20.30;99.90;;;;;;5022258;28;19917;-67
2023/06/12 06:10:24;;;;;;;;;;;20.40;99.90;;;;;;5029210;28;19909;-66
2023/06/12 06:12:52;;;;;;;;;;;20.50;99.90;;;;;;5028470;28;19957;-66
2023/06/12 06:15:18;;;;;;;;;;;20.60;99.90;;;;;;5025640;28;19913;-75
2023/06/12 06:17:43;;;;;;;;;;;20.60;99.90;;;;;;5027099;28;19936;-66
2023/06/12 06:20:11;;;;;;;;;;;20.70;99.90;;;;;;5018341;28;19953;-66
2023/06/12 06:22:36;;;;;;;;;;;20.70;99.90;;;;;;5028691;28;20303;-66
2023/06/12 06:25:05;;;;;;;;;;;20.80;99.90;;;;;;5025149;28;19992;-66
2023/06/12 06:27:32;;;;;;;;;;;20.90;99.90;;;;;;5020246;28;19995;-67
2023/06/12 06:29:57;;;;;;;;;;;21.00;99.90;;;;;;5022867;28;20004;-66
2023/06/12 06:32:23;;;;;;;;;;;21.10;99.90;;;;;;5031994;28;20000;-66
2023/06/12 06:34:48;;;;;;;;;;;21.20;99.90;;;;;;5029745;28;19909;-66
2023/06/12 06:37:14;;;;;;;;;;;21.30;99.90;;;;;;5021150;28;19921;-67
2023/06/12 06:39:40;;;;;;;;;;;21.40;99.90;;;;;;5029049;28;19913;-66
2023/06/12 06:42:05;;;;;;;;;;;21.40;99.90;;;;;;5033689;28;19967;-67
2023/06/12 06:44:31;;;;;;;;;;;21.60;99.90;;;;;;5033088;28;19943;-67
2023/06/12 06:46:56;;;;;;;;;;;21.70;99.90;;;;;;5022210;28;19909;-67
2023/06/12 06:49:22;;;;;;;;;;;21.80;99.90;;;;;;5028717;28;19913;-67
2023/06/12 06:51:48;;;;;;;;;;;21.80;99.90;;;;;;5034199;28;19905;-67
2023/06/12 06:54:13;;;;;;;;;;;21.80;99.90;;;;;;5034080;28;19916;-75
2023/06/12 06:56:39;;;;;;;;;;;21.90;99.90;;;;;;5025038;28;19925;-67
2023/06/12 06:59:04;;;;;;;;;;;21.90;99.90;;;;;;5031069;28;19937;-68
2023/06/12 07:01:33;;;;;;;;;;;22.00;99.90;;;;;;5028697;28;20085;-68
2023/06/12 07:03:58;;;;;;;;;;;22.00;99.90;;;;;;5043231;28;20367;-67
2023/06/12 07:06:24;;;;;;;;;;;22.00;99.90;;;;;;5022280;28;20008;-66
2023/06/12 07:08:50;;;;;;;;;;;22.00;99.90;;;;;;5026819;28;19921;-67
2023/06/12 07:11:16;;;;;;;;;;;22.00;99.90;;;;;;5021742;28;20219;-74
2023/06/12 07:13:42;;;;;;;;;;;22.10;99.90;;;;;;5026142;28;19909;-67
2023/06/12 07:16:07;;;;;;;;;;;22.10;99.90;;;;;;5019848;28;19909;-67
2023/06/12 07:18:33;;;;;;;;;;;22.20;99.90;;;;;;5027415;28;19912;-67
2023/06/12 07:20:59;;;;;;;;;;;22.20;99.90;;;;;;5023441;28;19923;-74
2023/06/12 07:23:24;;;;;;;;;;;22.30;99.90;;;;;;5027563;28;19959;-67
2023/06/12 07:25:50;;;;;;;;;;;22.40;99.90;;;;;;5015476;28;19959;-67
2023/06/12 07:28:16;;;;;;;;;;;22.50;99.90;;;;;;5025715;28;19920;-75
2023/06/12 07:30:42;;;;;;;;;;;22.60;99.90;;;;;;5019313;28;19916;-67
2023/06/12 07:33:08;;;;;;;;;;;22.70;99.90;;;;;;5023571;28;19996;-67
2023/06/12 07:35:35;;;;;;;;;;;22.80;99.90;;;;;;5022288;28;19917;-67
2023/06/12 07:38:02;;;;;;;;;;;22.90;99.90;;;;;;5033233;28;19940;-73
2023/06/12 07:40:28;;;;;;;;;;;23.00;99.90;;;;;;5024686;28;19917;-68
2023/06/12 07:42:53;;;;;;;;;;;23.10;99.90;;;;;;5022772;28;19916;-67
2023/06/12 07:45:19;;;;;;;;;;;23.10;99.90;;;;;;5027769;28;19924;-68
2023/06/12 07:47:47;;;;;;;;;;;23.20;99.90;;;;;;5032034;28;20292;-68
2023/06/12 07:50:12;;;;;;;;;;;23.30;99.90;;;;;;5018896;28;19954;-68
2023/06/12 07:52:38;;;;;;;;;;;23.40;99.90;;;;;;5017420;28;19917;-68
2023/06/12 07:55:05;;;;;;;;;;;23.40;99.90;;;;;;5017476;28;19916;-67
2023/06/12 07:57:31;;;;;;;;;;;23.50;99.90;;;;;;5029577;28;19996;-67
2023/06/12 07:59:56;;;;;;;;;;;23.60;99.90;;;;;;5031159;28;20562;-67
2023/06/12 08:02:23;;;;;;;;;;;23.80;99.90;;;;;;5018208;28;19932;-69
2023/06/12 08:04:49;;;;;;;;;;;24.00;99.90;;;;;;5017073;28;20185;-75
2023/06/12 08:07:15;;;;;;;;;;;24.00;99.90;;;;;;5017606;28;19928;-68
2023/06/12 08:09:41;;;;;;;;;;;24.10;99.90;;;;;;5029665;28;19956;-67
2023/06/12 08:12:07;;;;;;;;;;;24.20;99.90;;;;;;5027862;28;19945;-68
2023/06/12 08:14:33;;;;;;;;;;;24.20;99.90;;;;;;5019089;28;19917;-68
2023/06/12 08:16:58;;;;;;;;;;;24.30;99.90;;;;;;5016190;28;19913;-68
2023/06/12 08:19:24;;;;;;;;;;;24.30;99.90;;;;;;5017452;28;19913;-69
2023/06/12 08:21:50;;;;;;;;;;;24.40;99.90;;;;;;5025254;28;19912;-72
2023/06/12 08:24:16;;;;;;;;;;;24.60;99.90;;;;;;5023586;28;19932;-74
2023/06/12 08:26:41;;;;;;;;;;;24.80;99.70;;;;;;5023547;28;19905;-67
2023/06/12 08:29:08;;;;;;;;;;;24.80;99.10;;;;;;5019540;28;19920;-68
2023/06/12 08:31:34;;;;;;;;;;;24.90;99.20;;;;;;5030406;28;20196;-68
2023/06/12 08:33:59;;;;;;;;;;;25.00;99.30;;;;;;5030015;28;19959;-68
2023/06/12 08:36:26;;;;;;;;;;;25.20;99.70;;;;;;5027933;28;19913;-69
2023/06/12 08:38:51;;;;;;;;;;;25.30;99.40;;;;;;5016717;28;19945;-68
2023/06/12 08:41:18;;;;;;;;;;;25.40;99.50;;;;;;5016326;28;20299;-67
2023/06/12 08:43:45;;;;;;;;;;;25.50;98.70;;;;;;5015936;28;20005;-68
2023/06/12 08:46:11;;;;;;;;;;;25.50;98.50;;;;;;5016351;28;19913;-68
2023/06/12 08:48:36;;;;;;;;;;;25.60;98.70;;;;;;5016683;28;19968;-76
2023/06/12 08:51:03;;;;;;;;;;;25.80;98.20;;;;;;5016903;28;19909;-68
2023/06/12 08:53:29;;;;;;;;;;;25.80;98.70;;;;;;5016899;28;20004;-68
2023/06/12 08:55:55;;;;;;;;;;;26.00;97.50;;;;;;5015950;28;20284;-68
2023/06/12 08:58:21;;;;;;;;;;;26.20;98.10;;;;;;5013125;28;19910;-67
2023/06/12 09:00:46;;;;;;;;;;;26.30;97.00;;;;;;5013956;28;20323;-67
2023/06/12 09:03:12;;;;;;;;;;;26.30;97.10;;;;;;5016571;28;19996;-67
2023/06/12 09:05:38;;;;;;;;;;;26.30;96.40;;;;;;5016210;28;19952;-76
2023/06/12 09:08:05;;;;;;;;;;;26.40;97.30;;;;;;5016683;28;19917;-67
2023/06/12 09:10:31;;;;;;;;;;;26.40;97.10;;;;;;5016732;28;19928;-68
2023/06/12 09:12:57;;;;;;;;;;;26.60;97.60;;;;;;5016606;28;19912;-67
2023/06/12 09:15:23;;;;;;;;;;;26.70;96.80;;;;;;5013921;28;19917;-67
2023/06/12 09:17:50;;;;;;;;;;;26.80;96.90;;;;;;5015315;28;19909;-68
2023/06/12 09:20:26;;;;;;;;;;;26.80;95.50;;;;;;5015649;28;19986;-67
2023/06/12 09:22:52;;;;;;;;;;;26.90;95.80;;;;;;5015711;28;19964;-68
2023/06/12 09:25:18;;;;;;;;;;;26.90;95.90;;;;;;5030888;28;19953;-68
2023/06/12 09:27:44;;;;;;;;;;;27.00;94.80;;;;;;5015416;28;20015;-67
2023/06/12 09:30:10;;;;;;;;;;;26.90;93.90;;;;;;5030720;28;20288;-70
2023/06/12 09:32:36;;;;;;;;;;;26.90;94.20;;;;;;5015573;28;20204;-67
2023/06/12 09:35:01;;;;;;;;;;;26.90;94.00;;;;;;5015222;28;19938;-77
2023/06/12 09:37:27;;;;;;;;;;;26.90;94.30;;;;;;5014945;28;19913;-68
2023/06/12 09:40:08;;;;;;;;;;;27.00;95.30;;;;;;5017169;28;20307;-68
2023/06/12 09:42:37;;;;;;;;;;;27.00;94.50;;;;;;5005443;28;20235;-68
2023/06/12 09:45:16;;;;;;;;;;;27.00;94.40;;;;;;5014450;28;19909;-67
2023/06/12 09:47:46;;;;;;;;;;;27.00;94.40;;;;;;5002728;28;19925;-67
2023/06/12 09:50:12;;;;;;;;;;;27.10;94.40;;;;;;5015379;28;20318;-67
2023/06/12 09:52:41;;;;;;;;;;;27.10;94.50;;;;;;5012465;28;19905;-68
2023/06/12 09:55:08;;;;;;;;;;;27.10;94.60;;;;;;5005046;28;19913;-67
2023/06/12 09:57:35;;;;;;;;;;;27.20;93.90;;;;;;5013768;28;19925;-67
2023/06/12 10:00:11;;;;;;;;;;;27.20;94.20;;;;;;5014124;28;20215;-69
2023/06/12 10:02:43;;;;;;;;;;;27.30;93.50;;;;;;5014880;28;20004;-66
2023/06/12 10:05:22;;;;;;;;;;;27.30;93.40;;;;;;5015692;28;19905;-67
2023/06/12 10:07:52;;;;;;;;;;;27.30;94.80;;;;;;5014548;28;19913;-67
2023/06/12 10:10:18;;;;;;;;;;;27.60;95.10;;;;;;5014592;28;19920;-67
2023/06/12 10:12:44;;;;;;;;;;;27.60;93.80;;;;;;5014814;28;20312;-75
2023/06/12 10:15:11;;;;;;;;;;;27.60;93.30;;;;;;5013602;28;19963;-68
2023/06/12 10:17:37;;;;;;;;;;;27.70;93.70;;;;;;5015494;28;19905;-68
2023/06/12 10:20:03;;;;;;;;;;;27.80;94.30;;;;;;5022812;28;19909;-68
2023/06/12 10:22:28;;;;;;;;;;;27.90;93.00;;;;;;5023620;28;19992;-68
2023/06/12 10:24:56;;;;;;;;;;;27.80;93.10;;;;;;5022774;28;19927;-67
2023/06/12 10:27:22;;;;;;;;;;;27.80;94.10;;;;;;5024762;28;19920;-67
2023/06/12 10:29:54;;;;;;;;;;;27.90;93.00;;;;;;5019851;28;19909;-68
2023/06/12 10:32:20;;;;;;;;;;;28.00;92.80;;;;;;5014860;28;19917;-68
2023/06/12 10:34:48;;;;;;;;;;;28.10;93.40;;;;;;5015518;28;20224;-79
2023/06/12 10:37:28;;;;;;;;;;;28.10;93.20;;;;;;5018801;28;20300;-67
2023/06/12 10:40:07;;;;;;;;;;;28.00;92.50;;;;;;5021390;28;19999;-68
2023/06/12 10:42:43;;;;;;;;;;;28.20;92.20;;;;;;5001940;28;19959;-67
2023/06/12 10:45:19;;;;;;;;;;;28.10;91.70;;;;;;5014145;28;19909;-67
2023/06/12 10:50:29;;;;;;;;;;;28.10;91.80;;;;;;5015050;28;20211;-68
2023/06/12 10:52:55;;;;;;;;;;;28.20;92.30;;;;;;5015564;28;19906;-68
2023/06/12 10:55:21;;;;;;;;;;;28.40;92.70;;;;;;5015013;28;19932;-68
2023/06/12 10:57:53;;;;;;;;;;;28.20;91.30;;;;;;5014640;28;19921;-68
2023/06/12 11:00:21;;;;;;;;;;;28.00;91.10;;;;;;5015266;28;20304;-68
2023/06/12 11:02:53;;;;;;;;;;;27.90;89.60;;;;;;5030502;28;20204;-68
2023/06/12 11:05:19;;;;;;;;;;;27.70;90.50;;;;;;5013612;28;19944;-78
2023/06/12 11:07:46;;;;;;;;;;;27.70;90.80;;;;;;5018692;28;19964;-67
2023/06/12 11:10:12;;;;;;;;;;;27.70;91.50;;;;;;5018422;28;19936;-68
2023/06/12 11:12:45;;;;;;;;;;;28.00;91.70;;;;;;5021159;28;20296;-74
2023/06/12 11:15:10;;;;;;;;;;;28.10;91.50;;;;;;5011656;28;20296;-67
2023/06/12 11:17:36;;;;;;;;;;;28.10;89.70;;;;;;5020666;28;19933;-67
2023/06/12 11:20:01;;;;;;;;;;;28.20;91.40;;;;;;5023159;28;19909;-67
2023/06/12 11:22:27;;;;;;;;;;;28.30;90.70;;;;;;5017615;28;19917;-67
2023/06/12 11:25:06;;;;;;;;;;;28.30;91.10;;;;;;5019996;28;20292;-66
2023/06/12 11:27:33;;;;;;;;;;;28.30;91.40;;;;;;5019923;28;19912;-67
2023/06/12 11:30:15;;;;;;;;;;;28.30;90.80;;;;;;5023519;28;19920;-68
2023/06/12 11:32:41;;;;;;;;;;;28.20;90.30;;;;;;5011279;28;20266;-66
2023/06/12 11:35:09;;;;;;;;;;;28.10;87.90;;;;;;5029358;28;20302;-76
2023/06/12 11:37:36;;;;;;;;;;;28.10;89.00;;;;;;5018747;28;20193;-67
2023/06/12 11:40:09;;;;;;;;;;;28.20;89.20;;;;;;5012116;28;19916;-68
2023/06/12 11:42:39;;;;;;;;;;;28.20;87.40;;;;;;5018546;28;20296;-75
2023/06/12 11:45:14;;;;;;;;;;;28.20;90.00;;;;;;5017792;28;19917;-68
2023/06/12 11:47:40;;;;;;;;;;;28.20;89.70;;;;;;5015950;28;19968;-70
2023/06/12 11:50:08;;;;;;;;;;;28.30;94.20;;;;;;5019407;28;19905;-67
2023/06/12 11:52:34;;;;;;;;;;;28.30;90.70;;;;;;5022787;28;19909;-68
2023/06/12 11:55:01;;;;;;;;;;;28.40;89.40;;;;;;5021477;28;20369;-67
2023/06/12 11:57:26;;;;;;;;;;;28.30;89.70;;;;;;5026757;28;19956;-67
2023/06/12 11:59:56;;;;;;;;;;;28.40;93.60;;;;;;5022841;28;19917;-67
2023/06/12 12:02:26;;;;;;;;;;;28.30;95.30;;;;;;5022879;28;20232;-66
2023/06/12 12:04:52;;;;;;;;;;;28.10;92.90;;;;;;5016356;28;19987;-67
2023/06/12 12:07:20;;;;;;;;;;;27.90;94.20;;;;;;5022527;28;19975;-67
2023/06/12 12:09:45;;;;;;;;;;;27.80;94.60;;;;;;5022518;28;20224;-67
2023/06/12 12:12:12;;;;;;;;;;;27.70;95.30;;;;;;5023242;28;19912;-67
2023/06/12 12:14:50;;;;;;;;;;;27.80;95.80;;;;;;5026107;28;19912;-73
2023/06/12 12:17:16;;;;;;;;;;;27.90;95.70;;;;;;5025681;28;19913;-67
2023/06/12 12:19:41;;;;;;;;;;;27.90;94.90;;;;;;5024780;28;19909;-66
2023/06/12 12:22:08;;;;;;;;;;;27.70;95.40;;;;;;5029831;28;19928;-74
2023/06/12 12:24:35;;;;;;;;;;;27.60;94.90;;;;;;5017921;28;19925;-65
2023/06/12 12:27:00;;;;;;;;;;;27.70;96.00;;;;;;5024246;28;20051;-67
2023/06/12 12:29:26;;;;;;;;;;;27.80;95.70;;;;;;5019718;28;20007;-67
2023/06/12 12:31:52;;;;;;;;;;;27.70;94.70;;;;;;5020648;28;19912;-67
2023/06/12 12:34:17;;;;;;;;;;;27.80;95.90;;;;;;5027307;28;20219;-76
2023/06/12 12:36:44;;;;;;;;;;;27.80;95.50;;;;;;5028235;28;19959;-67
2023/06/12 12:39:10;;;;;;;;;;;27.70;95.60;;;;;;5017233;28;19909;-66
2023/06/12 12:41:36;;;;;;;;;;;27.70;95.00;;;;;;5017256;28;20281;-66
2023/06/12 12:44:01;;;;;;;;;;;27.60;94.80;;;;;;5015753;28;19916;-67
2023/06/12 12:46:27;;;;;;;;;;;27.50;93.70;;;;;;5015617;28;19917;-65
2023/06/12 12:48:53;;;;;;;;;;;27.40;95.20;;;;;;5016313;28;19913;-67
2023/06/12 12:51:18;;;;;;;;;;;27.40;95.20;;;;;;5014667;28;19913;-66
2023/06/12 12:53:44;;;;;;;;;;;27.30;94.90;;;;;;5017054;28;19910;-66
2023/06/12 12:56:11;;;;;;;;;;;27.30;95.90;;;;;;5011712;28;20321;-65
2023/06/12 12:58:36;;;;;;;;;;;27.40;95.20;;;;;;5015869;28;19909;-67
2023/06/12 13:01:03;;;;;;;;;;;27.50;96.20;;;;;;5017234;28;19918;-67
2023/06/12 13:03:36;;;;;;;;;;;27.60;93.60;;;;;;5016095;28;19909;-66
2023/06/12 13:06:05;;;;;;;;;;;27.40;94.00;;;;;;5015943;28;19917;-65
2023/06/12 13:08:31;;;;;;;;;;;27.40;94.30;;;;;;5016399;28;19916;-66
2023/06/12 13:10:58;;;;;;;;;;;27.30;94.90;;;;;;5016061;28;19905;-65
2023/06/12 13:13:24;;;;;;;;;;;27.30;94.00;;;;;;5015736;28;20308;-77
2023/06/12 13:15:50;;;;;;;;;;;27.30;93.80;;;;;;5016081;28;19913;-66
2023/06/12 13:18:15;;;;;;;;;;;27.30;93.90;;;;;;5015511;28;19913;-67
2023/06/12 13:20:42;;;;;;;;;;;27.30;93.40;;;;;;5016325;28;20254;-65
2023/06/12 13:23:07;;;;;;;;;;;27.30;94.60;;;;;;5015731;28;19909;-67
2023/06/12 13:25:33;;;;;;;;;;;27.30;94.40;;;;;;5015032;28;20043;-67
2023/06/12 13:27:58;;;;;;;;;;;27.30;93.70;;;;;;5016058;28;19928;-75
2023/06/12 13:30:24;;;;;;;;;;;27.30;93.80;;;;;;5014971;28;19914;-67
2023/06/12 13:32:50;;;;;;;;;;;27.10;93.30;;;;;;5016093;28;19910;-67
2023/06/12 13:35:16;;;;;;;;;;;27.10;94.90;;;;;;5015722;28;19932;-74
2023/06/12 13:37:42;;;;;;;;;;;27.30;95.00;;;;;;5015316;28;20296;-68
2023/06/12 13:40:12;;;;;;;;;;;27.30;93.70;;;;;;5030868;28;19905;-75
2023/06/12 13:42:38;;;;;;;;;;;27.30;93.60;;;;;;5016058;28;20197;-69
2023/06/12 13:45:04;;;;;;;;;;;27.10;93.50;;;;;;5021508;28;19921;-67
2023/06/12 13:47:30;;;;;;;;;;;27.00;93.20;;;;;;5015294;28;19909;-68
2023/06/12 13:49:55;;;;;;;;;;;26.90;93.30;;;;;;5014619;28;20549;-67
2023/06/12 13:52:21;;;;;;;;;;;26.90;94.00;;;;;;5015547;28;19945;-68
2023/06/12 13:54:46;;;;;;;;;;;27.00;94.20;;;;;;5016632;28;20319;-68
2023/06/12 13:57:12;;;;;;;;;;;26.90;93.40;;;;;;5019572;28;20240;-67
2023/06/12 13:59:38;;;;;;;;;;;26.80;93.30;;;;;;5015806;28;19905;-68
2023/06/12 14:02:04;;;;;;;;;;;26.90;93.40;;;;;;5014747;28;19987;-69
2023/06/12 14:04:31;;;;;;;;;;;26.80;92.60;;;;;;5014658;28;20008;-73
2023/06/12 14:06:58;;;;;;;;;;;26.80;92.50;;;;;;5015807;28;20019;-67
2023/06/12 14:09:24;;;;;;;;;;;26.80;93.10;;;;;;5015345;28;19913;-69
2023/06/12 14:11:50;;;;;;;;;;;26.60;93.50;;;;;;5015307;28;20063;-69
2023/06/12 14:14:15;;;;;;;;;;;26.70;93.00;;;;;;5014541;28;20007;-75
2023/06/12 14:16:41;;;;;;;;;;;26.70;93.40;;;;;;5014979;28;20754;-69